Time;durP1;ratioP1;P1;durP2;ratioP2;P2;SDS_P1;SDS_P2;PMS_P1;PMS_P2;Temp;Humidity;BMP_temperature;BMP_pressure;BME280_temperature;BME280_humidity;BME280_pressure;Samples;Min_cycle;Max_cycle;Signal;HPM_P1;HPM_P2
2021/08/21 04:51:56;;;;;;;2.33;2.13;;;;;;;;;;5270988;23;20057;-80
2021/08/21 04:54:24;;;;;;;3.70;2.67;;;;;;;;;;4958378;28;20057;-80
2021/08/21 04:56:52;;;;;;;3.83;2.15;;;;;;;;;;4975041;28;20348;-80
2021/08/21 04:59:42;;;;;;;3.28;2.97;;;;;;;;;;4975060;28;20463;-80
2021/08/21 05:02:09;;;;;;;3.35;2.20;;;;;;;;;;4973224;28;20049;-80
2021/08/21 05:04:37;;;;;;;4.55;1.92;;;;;;;;;;4976920;28;20381;-80
2021/08/21 05:07:06;;;;;;;4.97;2.45;;;;;;;;;;4994255;28;20470;-80
2021/08/21 05:09:34;;;;;;;2.42;2.22;;;;;;;;;;4976901;28;20047;-80
2021/08/21 05:12:07;;;;;;;2.65;2.03;;;;;;;;;;4976223;28;20298;-80
2021/08/21 05:14:44;;;;;;;3.60;1.90;;;;;;;;;;4976481;28;20038;-80
2021/08/21 05:17:11;;;;;;;3.20;1.85;;;;;;;;;;4976522;28;20042;-81
2021/08/21 05:20:03;;;;;;;3.22;1.73;;;;;;;;;;4994010;28;20054;-80
2021/08/21 05:23:02;;;;;;;4.45;1.63;;;;;;;;;;4976746;28;20101;-80
2021/08/21 05:25:30;;;;;;;2.22;1.80;;;;;;;;;;4976870;28;20141;-80
2021/08/21 05:27:57;;;;;;;2.70;1.60;;;;;;;;;;4994112;28;20042;-80
2021/08/21 05:30:27;;;;;;;1.58;1.33;;;;;;;;;;4976116;28;20048;-81
2021/08/21 05:32:55;;;;;;;2.00;1.30;;;;;;;;;;4994026;28;20049;-81
2021/08/21 05:35:23;;;;;;;4.05;1.60;;;;;;;;;;4993869;28;20058;-81
2021/08/21 05:37:53;;;;;;;3.47;1.75;;;;;;;;;;4993633;28;20073;-81
2021/08/21 05:40:20;;;;;;;1.48;1.38;;;;;;;;;;4993625;28;20142;-81
2021/08/21 05:42:47;;;;;;;1.42;1.33;;;;;;;;;;4993692;28;20057;-81
2021/08/21 05:45:14;;;;;;;2.58;1.48;;;;;;;;;;4993486;28;20038;-81
2021/08/21 05:47:42;;;;;;;3.22;1.50;;;;;;;;;;4993354;28;20500;-81
2021/08/21 05:50:09;;;;;;;2.85;1.67;;;;;;;;;;4993130;28;20051;-81
2021/08/21 05:52:37;;;;;;;1.73;1.58;;;;;;;;;;4993177;28;20050;-81
2021/08/21 05:55:06;;;;;;;2.35;1.70;;;;;;;;;;4976123;28;20396;-81
2021/08/21 05:57:45;;;;;;;2.80;1.77;;;;;;;;;;4976139;28;20052;-81
2021/08/21 06:00:13;;;;;;;3.70;2.47;;;;;;;;;;4991957;28;20133;-80
2021/08/21 06:02:40;;;;;;;2.05;1.80;;;;;;;;;;4993284;28;20077;-82
2021/08/21 06:05:10;;;;;;;4.22;1.90;;;;;;;;;;4993349;28;20105;-82
2021/08/21 06:07:38;;;;;;;3.80;2.10;;;;;;;;;;4975716;28;20050;-82
2021/08/21 06:10:12;;;;;;;3.05;1.88;;;;;;;;;;4975369;28;20054;-82
2021/08/21 06:12:40;;;;;;;7.68;2.80;;;;;;;;;;4975740;28;20122;-82
2021/08/21 06:15:08;;;;;;;6.25;2.50;;;;;;;;;;4973756;28;20049;-82
2021/08/21 06:17:36;;;;;;;2.30;2.10;;;;;;;;;;4973894;28;20186;-80
2021/08/21 06:20:04;;;;;;;2.72;2.53;;;;;;;;;;4973598;28;20056;-80
2021/08/21 06:22:32;;;;;;;5.57;2.92;;;;;;;;;;4973706;28;20618;-81
2021/08/21 06:24:59;;;;;;;2.38;2.17;;;;;;;;;;4973825;28;20047;-81
2021/08/21 06:27:27;;;;;;;4.32;2.28;;;;;;;;;;4973430;28;20138;-81
2021/08/21 06:29:55;;;;;;;4.32;2.50;;;;;;;;;;4973180;28;20046;-81
2021/08/21 06:32:22;;;;;;;4.15;2.20;;;;;;;;;;4973656;28;20110;-82
2021/08/21 06:34:49;;;;;;;4.05;2.17;;;;;;;;;;4973809;28;20046;-81
2021/08/21 06:37:17;;;;;;;3.35;2.33;;;;;;;;;;4973610;28;20381;-81
2021/08/21 06:39:44;;;;;;;2.38;2.13;;;;;;;;;;4973402;28;20046;-81
2021/08/21 06:42:11;;;;;;;2.10;1.92;;;;;;;;;;4972935;28;20395;-81
2021/08/21 06:44:44;;;;;;;5.95;2.90;;;;;;;;;;4956293;28;20491;-81
2021/08/21 06:47:11;;;;;;;3.72;2.78;;;;;;;;;;4974215;28;20453;-82
2021/08/21 06:49:39;;;;;;;4.68;2.95;;;;;;;;;;4973850;28;20045;-81
2021/08/21 06:52:14;;;;;;;3.97;3.17;;;;;;;;;;4987946;28;20051;-81
2021/08/21 06:54:44;;;;;;;4.18;3.25;;;;;;;;;;4995546;28;20042;-81
2021/08/21 06:57:11;;;;;;;4.55;2.90;;;;;;;;;;5000636;28;20074;-81
2021/08/21 06:59:39;;;;;;;3.92;3.10;;;;;;;;;;5010453;28;20038;-81
2021/08/21 07:02:08;;;;;;;3.00;2.80;;;;;;;;;;5011916;28;20121;-81
2021/08/21 07:04:35;;;;;;;3.83;3.13;;;;;;;;;;5012268;28;20053;-81
2021/08/21 07:07:03;;;;;;;4.95;3.42;;;;;;;;;;5011031;28;20558;-81
2021/08/21 07:09:30;;;;;;;3.17;2.92;;;;;;;;;;4996120;28;20046;-81
2021/08/21 07:11:57;;;;;;;5.70;3.03;;;;;;;;;;4991495;28;20054;-81
2021/08/21 07:14:25;;;;;;;3.53;2.63;;;;;;;;;;4992220;28;20403;-81
2021/08/21 07:16:55;;;;;;;5.72;3.13;;;;;;;;;;4992123;28;20053;-81
2021/08/21 07:19:23;;;;;;;2.88;2.67;;;;;;;;;;4992733;28;20077;-81
2021/08/21 07:21:54;;;;;;;3.10;2.80;;;;;;;;;;4991398;28;20093;-81
2021/08/21 07:24:22;;;;;;;5.30;2.80;;;;;;;;;;4991976;28;20508;-81
2021/08/21 07:26:55;;;;;;;5.47;3.08;;;;;;;;;;4992128;28;20403;-80
2021/08/21 07:29:22;;;;;;;4.22;3.13;;;;;;;;;;4992238;28;20118;-80
2021/08/21 07:31:50;;;;;;;3.33;2.83;;;;;;;;;;4991543;28;20129;-80
2021/08/21 07:34:17;;;;;;;2.72;2.42;;;;;;;;;;4991570;28;20050;-80
2021/08/21 07:36:45;;;;;;;5.68;2.95;;;;;;;;;;4991846;28;20054;-80
2021/08/21 07:39:13;;;;;;;4.75;2.83;;;;;;;;;;4991767;28;20057;-82
2021/08/21 07:41:40;;;;;;;3.70;2.47;;;;;;;;;;4991121;28;20113;-82
2021/08/21 07:44:07;;;;;;;3.47;2.60;;;;;;;;;;4991486;28;20038;-82
2021/08/21 07:46:35;;;;;;;4.38;2.70;;;;;;;;;;4991785;28;20061;-82
2021/08/21 07:49:02;;;;;;;3.67;3.38;;;;;;;;;;4991279;28;20050;-82
2021/08/21 07:51:29;;;;;;;3.30;3.00;;;;;;;;;;4990608;28;20042;-82
2021/08/21 07:53:58;;;;;;;3.75;2.55;;;;;;;;;;4991479;28;20054;-82
2021/08/21 07:56:25;;;;;;;3.60;2.65;;;;;;;;;;4990930;28;20145;-82
2021/08/21 07:58:53;;;;;;;3.33;2.70;;;;;;;;;;4991506;28;20046;-82
2021/08/21 08:01:20;;;;;;;5.47;2.97;;;;;;;;;;4990784;28;20506;-82
2021/08/21 08:03:47;;;;;;;3.00;2.70;;;;;;;;;;4991249;28;20422;-82
2021/08/21 08:06:15;;;;;;;8.13;3.00;;;;;;;;;;4991354;28;20050;-82
2021/08/21 08:08:42;;;;;;;2.80;2.35;;;;;;;;;;4990920;28;20113;-82
2021/08/21 08:11:11;;;;;;;3.03;2.70;;;;;;;;;;4990884;28;20506;-82
2021/08/21 08:13:38;;;;;;;2.70;2.50;;;;;;;;;;4991344;28;20045;-82
2021/08/21 08:16:06;;;;;;;4.57;2.55;;;;;;;;;;4991246;28;20105;-82
2021/08/21 08:18:33;;;;;;;5.05;2.33;;;;;;;;;;4990818;28;20050;-82
2021/08/21 08:21:00;;;;;;;2.63;2.38;;;;;;;;;;4990772;28;20046;-82
2021/08/21 08:23:27;;;;;;;3.20;2.60;;;;;;;;;;4990269;28;20511;-82
2021/08/21 08:25:56;;;;;;;4.57;2.90;;;;;;;;;;4991312;28;20050;-82
2021/08/21 08:28:24;;;;;;;5.65;2.78;;;;;;;;;;4991034;28;20034;-82
2021/08/21 08:30:53;;;;;;;2.90;2.60;;;;;;;;;;4990509;28;20153;-82
2021/08/21 08:33:22;;;;;;;2.83;2.63;;;;;;;;;;4991138;28;20600;-82
2021/08/21 08:35:51;;;;;;;2.78;2.55;;;;;;;;;;4991739;28;20062;-82
2021/08/21 08:38:18;;;;;;;8.55;2.45;;;;;;;;;;4991252;28;20049;-82
2021/08/21 08:40:45;;;;;;;6.15;2.67;;;;;;;;;;4990550;28;20412;-82
2021/08/21 08:43:12;;;;;;;4.47;2.60;;;;;;;;;;4991209;28;20050;-82
2021/08/21 08:45:42;;;;;;;5.85;2.67;;;;;;;;;;4991368;28;20137;-82
2021/08/21 08:48:10;;;;;;;3.38;2.83;;;;;;;;;;4991569;28;20050;-82
2021/08/21 08:50:37;;;;;;;3.30;2.97;;;;;;;;;;4990229;28;20172;-82
2021/08/21 08:53:05;;;;;;;3.90;2.53;;;;;;;;;;4990968;28;20690;-82
2021/08/21 08:55:32;;;;;;;2.83;2.58;;;;;;;;;;4991052;28;20043;-80
2021/08/21 08:58:00;;;;;;;3.83;2.80;;;;;;;;;;4990945;28;20042;-81
2021/08/21 09:00:28;;;;;;;4.13;2.40;;;;;;;;;;4990211;28;20072;-81
2021/08/21 09:02:58;;;;;;;4.10;2.65;;;;;;;;;;4990637;28;20042;-81
2021/08/21 09:05:26;;;;;;;2.92;2.28;;;;;;;;;;4990889;28;20121;-81
2021/08/21 09:07:54;;;;;;;3.03;2.80;;;;;;;;;;4990754;28;20077;-81
2021/08/21 09:10:22;;;;;;;2.88;2.50;;;;;;;;;;4990064;28;20042;-82
2021/08/21 09:12:50;;;;;;;3.08;2.67;;;;;;;;;;4971939;28;20039;-81
2021/08/21 09:15:25;;;;;;;2.60;2.40;;;;;;;;;;4971058;28;20408;-81
2021/08/21 09:18:07;;;;;;;2.33;2.22;;;;;;;;;;4971157;28;20054;-81
2021/08/21 09:20:36;;;;;;;3.72;2.60;;;;;;;;;;4971097;28;20053;-81
2021/08/21 09:23:19;;;;;;;2.50;2.38;;;;;;;;;;4971158;28;20049;-82
2021/08/21 09:25:48;;;;;;;4.53;2.83;;;;;;;;;;4971452;28;20038;-82
2021/08/21 09:28:16;;;;;;;6.40;2.72;;;;;;;;;;4972478;28;20047;-82
2021/08/21 09:30:43;;;;;;;7.25;3.05;;;;;;;;;;4971585;28;20043;-82
2021/08/21 09:33:12;;;;;;;2.60;2.40;;;;;;;;;;4972125;28;20042;-82
2021/08/21 09:35:39;;;;;;;2.90;2.70;;;;;;;;;;4974948;28;20117;-82
2021/08/21 09:38:06;;;;;;;2.80;2.60;;;;;;;;;;4974910;28;20043;-82
2021/08/21 09:40:34;;;;;;;2.83;2.60;;;;;;;;;;4974341;28;20053;-82
2021/08/21 09:43:02;;;;;;;3.50;2.70;;;;;;;;;;4985332;28;20374;-81
2021/08/21 09:45:30;;;;;;;4.78;2.40;;;;;;;;;;4990829;28;20067;-82
2021/08/21 09:48:00;;;;;;;4.50;2.70;;;;;;;;;;4992006;28;20091;-82
2021/08/21 09:50:32;;;;;;;3.42;2.25;;;;;;;;;;4990342;28;20074;-82
2021/08/21 09:53:09;;;;;;;2.50;2.30;;;;;;;;;;4972770;29;20039;-82
2021/08/21 09:55:36;;;;;;;4.60;2.83;;;;;;;;;;4961665;29;20046;-82
2021/08/21 09:58:15;;;;;;;2.70;2.38;;;;;;;;;;4954485;29;20058;-82
2021/08/21 10:00:43;;;;;;;3.30;3.00;;;;;;;;;;4954486;29;20051;-82
2021/08/21 10:03:10;;;;;;;3.13;2.38;;;;;;;;;;4954769;29;20050;-82
2021/08/21 10:05:47;;;;;;;2.92;2.70;;;;;;;;;;4953428;29;20043;-82
2021/08/21 10:08:15;;;;;;;6.90;2.85;;;;;;;;;;4954902;29;20043;-82
2021/08/21 10:10:50;;;;;;;2.85;2.42;;;;;;;;;;4955587;28;20049;-82
2021/08/21 10:13:24;;;;;;;5.20;2.25;;;;;;;;;;4974433;28;20043;-82
2021/08/21 10:15:52;;;;;;;2.30;2.10;;;;;;;;;;4974503;28;20046;-82
2021/08/21 10:18:20;;;;;;;2.20;1.98;;;;;;;;;;4974251;28;20061;-82
2021/08/21 10:20:49;;;;;;;2.67;2.03;;;;;;;;;;4973713;28;20504;-82
2021/08/21 10:23:18;;;;;;;2.95;2.00;;;;;;;;;;4974040;28;20035;-82
2021/08/21 10:25:49;;;;;;;4.32;2.25;;;;;;;;;;4974024;28;20101;-82
2021/08/21 10:28:17;;;;;;;2.60;2.30;;;;;;;;;;4974233;28;20125;-82
2021/08/21 10:30:45;;;;;;;3.33;2.40;;;;;;;;;;4973261;28;20045;-82
2021/08/21 10:33:13;;;;;;;3.65;2.20;;;;;;;;;;4973744;28;20133;-82
2021/08/21 10:35:45;;;;;;;2.40;2.20;;;;;;;;;;4973586;28;20038;-82
2021/08/21 10:38:27;;;;;;;2.50;2.13;;;;;;;;;;4973422;28;20131;-82
2021/08/21 10:40:56;;;;;;;2.53;2.30;;;;;;;;;;4969617;28;20100;-82
2021/08/21 10:43:42;;;;;;;5.32;2.50;;;;;;;;;;4973328;28;20142;-82
2021/08/21 10:46:09;;;;;;;3.95;2.13;;;;;;;;;;4972331;28;20038;-82
2021/08/21 10:48:55;;;;;;;3.45;2.53;;;;;;;;;;4973514;28;20042;-82
2021/08/21 10:51:31;;;;;;;2.38;2.17;;;;;;;;;;4981132;28;20130;-82
2021/08/21 10:53:59;;;;;;;2.65;2.45;;;;;;;;;;4992594;28;20054;-82
2021/08/21 10:56:38;;;;;;;2.83;2.25;;;;;;;;;;4992458;28;20384;-82
2021/08/21 10:59:05;;;;;;;2.50;2.22;;;;;;;;;;4992479;28;20086;-81
2021/08/21 11:01:33;;;;;;;2.03;1.85;;;;;;;;;;4992686;28;20093;-81
2021/08/21 11:04:02;;;;;;;2.13;2.03;;;;;;;;;;4995391;28;20539;-81
2021/08/21 11:06:33;;;;;;;2.45;2.10;;;;;;;;;;4995045;28;20484;-80
2021/08/21 11:09:02;;;;;;;2.38;2.08;;;;;;;;;;4995368;28;20538;-80
2021/08/21 11:11:35;;;;;;;3.55;2.30;;;;;;;;;;4994975;28;20038;-80
2021/08/21 11:14:06;;;;;;;3.58;1.88;;;;;;;;;;4995321;28;20496;-80
2021/08/21 11:16:46;;;;;;;4.80;2.20;;;;;;;;;;4993806;28;20687;-81
2021/08/21 11:19:16;;;;;;;2.40;2.20;;;;;;;;;;4992672;28;20145;-81
2021/08/21 11:21:43;;;;;;;4.80;2.28;;;;;;;;;;4991575;28;20559;-81
2021/08/21 11:24:28;;;;;;;3.25;2.20;;;;;;;;;;4992635;28;20050;-81
2021/08/21 11:27:10;;;;;;;4.38;2.30;;;;;;;;;;4992660;28;20140;-81
2021/08/21 11:29:53;;;;;;;3.75;2.30;;;;;;;;;;4992412;28;20054;-81
2021/08/21 11:32:23;;;;;;;2.80;2.08;;;;;;;;;;4993108;28;20198;-81
2021/08/21 11:34:50;;;;;;;2.28;2.03;;;;;;;;;;4992660;28;20039;-81
2021/08/21 11:37:18;;;;;;;2.55;2.35;;;;;;;;;;4992698;28;20060;-81
2021/08/21 11:39:54;;;;;;;2.67;2.22;;;;;;;;;;4993164;28;20051;-81
2021/08/21 11:42:21;;;;;;;2.88;2.20;;;;;;;;;;4991874;28;20046;-81
2021/08/21 11:44:54;;;;;;;2.97;2.47;;;;;;;;;;4992355;28;20128;-81
2021/08/21 11:47:30;;;;;;;2.72;2.53;;;;;;;;;;4992045;28;20110;-81
2021/08/21 11:49:58;;;;;;;2.28;2.15;;;;;;;;;;4991030;28;20038;-81
2021/08/21 11:52:25;;;;;;;3.30;2.22;;;;;;;;;;4991455;28;20042;-82
2021/08/21 11:54:53;;;;;;;2.83;2.63;;;;;;;;;;4991524;28;20056;-80
2021/08/21 11:57:20;;;;;;;2.78;2.17;;;;;;;;;;4991280;28;20384;-81
2021/08/21 11:59:47;;;;;;;2.67;2.47;;;;;;;;;;4991585;28;20463;-81
2021/08/21 12:02:17;;;;;;;2.08;1.88;;;;;;;;;;4992076;28;20274;-82
2021/08/21 12:04:55;;;;;;;2.80;2.15;;;;;;;;;;4991804;28;20476;-82
2021/08/21 12:07:32;;;;;;;2.95;2.22;;;;;;;;;;4991444;28;20118;-81
2021/08/21 12:10:00;;;;;;;2.72;2.45;;;;;;;;;;4991203;28;20054;-82
2021/08/21 12:12:28;;;;;;;3.10;2.53;;;;;;;;;;4991797;28;20050;-82
2021/08/21 12:14:56;;;;;;;4.80;2.00;;;;;;;;;;4991966;28;20081;-82
2021/08/21 12:17:23;;;;;;;2.95;1.70;;;;;;;;;;4991271;28;20046;-82
2021/08/21 12:19:50;;;;;;;2.50;2.25;;;;;;;;;;4990641;28;20089;-82
2021/08/21 12:22:19;;;;;;;2.47;2.03;;;;;;;;;;4991297;28;20554;-81
2021/08/21 12:24:53;;;;;;;2.33;2.13;;;;;;;;;;4991181;28;20047;-81
2021/08/21 12:27:23;;;;;;;2.40;2.20;;;;;;;;;;4991111;28;20042;-81
2021/08/21 12:30:05;;;;;;;3.40;2.55;;;;;;;;;;4991206;28;20061;-81
2021/08/21 12:32:32;;;;;;;3.90;2.25;;;;;;;;;;4984225;28;20050;-81
2021/08/21 12:35:10;;;;;;;3.58;2.38;;;;;;;;;;5008802;28;20074;-81
2021/08/21 12:37:39;;;;;;;2.72;2.50;;;;;;;;;;5010978;28;20042;-81
2021/08/21 12:40:10;;;;;;;2.88;2.63;;;;;;;;;;5008009;28;20034;-81
2021/08/21 12:42:38;;;;;;;2.70;2.50;;;;;;;;;;5009036;28;20046;-81
2021/08/21 12:45:24;;;;;;;3.05;2.40;;;;;;;;;;4995260;28;20053;-82
2021/08/21 12:47:52;;;;;;;2.92;2.22;;;;;;;;;;4990916;28;20051;-81
2021/08/21 12:50:20;;;;;;;4.60;2.78;;;;;;;;;;4990411;28;20073;-81
2021/08/21 12:53:06;;;;;;;5.00;2.33;;;;;;;;;;4991362;28;20050;-81
2021/08/21 12:55:33;;;;;;;2.70;2.50;;;;;;;;;;4974092;28;20137;-82
2021/08/21 12:58:06;;;;;;;4.80;2.70;;;;;;;;;;4990827;28;20549;-82
2021/08/21 13:00:33;;;;;;;3.03;2.72;;;;;;;;;;4990494;28;20042;-81
2021/08/21 13:03:13;;;;;;;3.38;2.70;;;;;;;;;;4990978;28;20203;-81
2021/08/21 13:05:40;;;;;;;5.03;2.60;;;;;;;;;;4990860;28;20048;-81
2021/08/21 13:08:10;;;;;;;3.80;2.67;;;;;;;;;;4991608;28;20039;-81
2021/08/21 13:10:38;;;;;;;2.88;2.45;;;;;;;;;;4993921;28;20042;-82
2021/08/21 13:13:06;;;;;;;3.33;3.03;;;;;;;;;;4994456;28;20042;-82
2021/08/21 13:15:33;;;;;;;4.30;2.75;;;;;;;;;;4994385;28;20042;-82
2021/08/21 13:18:03;;;;;;;7.10;2.70;;;;;;;;;;4994463;28;20081;-82
2021/08/21 13:20:31;;;;;;;2.70;2.50;;;;;;;;;;4994017;28;20062;-82
2021/08/21 13:22:58;;;;;;;4.18;2.83;;;;;;;;;;4975271;28;20050;-81
2021/08/21 13:25:27;;;;;;;6.70;2.70;;;;;;;;;;4974802;28;20477;-81
2021/08/21 13:27:54;;;;;;;3.30;2.95;;;;;;;;;;4974686;28;20047;-81
2021/08/21 13:30:21;;;;;;;2.88;2.67;;;;;;;;;;4974426;28;20056;-81
2021/08/21 13:32:49;;;;;;;3.00;2.80;;;;;;;;;;4974772;28;20039;-82
2021/08/21 13:35:19;;;;;;;4.07;2.45;;;;;;;;;;4957366;28;20054;-82
2021/08/21 13:37:47;;;;;;;4.68;2.75;;;;;;;;;;4974667;28;20724;-81
2021/08/21 13:40:14;;;;;;;6.57;2.58;;;;;;;;;;4973909;28;20043;-82
2021/08/21 13:42:43;;;;;;;3.33;2.40;;;;;;;;;;4974747;28;20133;-82
2021/08/21 13:45:11;;;;;;;2.72;2.53;;;;;;;;;;4974928;28;20046;-82
2021/08/21 13:47:38;;;;;;;2.92;2.58;;;;;;;;;;4974642;28;20050;-82
2021/08/21 13:50:08;;;;;;;3.15;2.60;;;;;;;;;;4974183;28;20137;-82
2021/08/21 13:52:35;;;;;;;6.07;3.13;;;;;;;;;;4973881;28;20054;-82
2021/08/21 13:55:02;;;;;;;2.80;2.60;;;;;;;;;;4974968;28;20496;-83
2021/08/21 13:57:30;;;;;;;8.10;3.17;;;;;;;;;;4974440;28;20042;-81
2021/08/21 13:59:58;;;;;;;4.03;2.40;;;;;;;;;;4974196;28;20154;-81
2021/08/21 14:02:26;;;;;;;2.63;2.42;;;;;;;;;;4974355;28;20039;-81
2021/08/21 14:04:53;;;;;;;4.28;2.60;;;;;;;;;;4974416;28;20058;-81
2021/08/21 14:07:20;;;;;;;4.55;3.08;;;;;;;;;;4974314;28;20488;-81
2021/08/21 14:09:47;;;;;;;6.18;2.90;;;;;;;;;;4973954;28;20559;-81
2021/08/21 14:12:15;;;;;;;3.42;2.78;;;;;;;;;;4974566;28;20042;-81
2021/08/21 14:14:42;;;;;;;3.40;3.10;;;;;;;;;;4990795;28;20038;-82
2021/08/21 14:17:11;;;;;;;4.28;3.30;;;;;;;;;;4993810;28;20137;-82
2021/08/21 14:19:38;;;;;;;3.08;2.78;;;;;;;;;;4992734;28;20054;-82
2021/08/21 14:22:06;;;;;;;7.28;3.30;;;;;;;;;;4992757;28;20384;-82
2021/08/21 14:24:33;;;;;;;3.13;2.75;;;;;;;;;;4993310;28;20042;-82
2021/08/21 14:27:01;;;;;;;2.85;2.60;;;;;;;;;;4993264;28;20149;-82
2021/08/21 14:29:28;;;;;;;3.60;2.90;;;;;;;;;;4992981;28;20041;-82
2021/08/21 14:31:55;;;;;;;6.43;3.28;;;;;;;;;;4992925;28;20137;-82
2021/08/21 14:34:24;;;;;;;4.60;3.10;;;;;;;;;;4992943;28;20484;-82
2021/08/21 14:36:52;;;;;;;5.10;2.97;;;;;;;;;;4992603;28;20064;-82
2021/08/21 14:39:19;;;;;;;3.33;3.10;;;;;;;;;;4992538;28;20054;-82
2021/08/21 14:41:48;;;;;;;4.28;3.00;;;;;;;;;;4992622;28;20129;-82
2021/08/21 14:44:15;;;;;;;7.15;3.53;;;;;;;;;;4975335;28;20084;-82
2021/08/21 14:46:42;;;;;;;3.03;2.83;;;;;;;;;;4992643;28;20078;-82
2021/08/21 14:49:10;;;;;;;3.30;3.00;;;;;;;;;;4992502;28;20053;-82
2021/08/21 14:51:38;;;;;;;2.92;2.60;;;;;;;;;;4991669;28;20046;-82
2021/08/21 14:54:06;;;;;;;2.90;2.70;;;;;;;;;;4992650;28;20138;-82
2021/08/21 14:56:33;;;;;;;4.35;3.17;;;;;;;;;;4992439;28;20117;-82
2021/08/21 14:59:00;;;;;;;3.30;3.00;;;;;;;;;;4992222;28;20045;-82
2021/08/21 15:01:28;;;;;;;5.22;3.10;;;;;;;;;;4992054;28;20042;-82
2021/08/21 15:03:56;;;;;;;5.22;3.20;;;;;;;;;;4992881;28;20042;-82
2021/08/21 15:06:23;;;;;;;3.72;3.30;;;;;;;;;;4992994;28;20196;-82
2021/08/21 15:08:58;;;;;;;3.25;3.05;;;;;;;;;;4993399;28;20106;-81
2021/08/21 15:11:26;;;;;;;3.42;2.95;;;;;;;;;;4985125;28;20114;-81
2021/08/21 15:13:53;;;;;;;4.95;3.00;;;;;;;;;;4972938;28;20047;-81
2021/08/21 15:16:20;;;;;;;6.80;3.38;;;;;;;;;;4973603;28;20126;-81
2021/08/21 15:18:48;;;;;;;8.15;3.85;;;;;;;;;;4973284;28;20051;-81
2021/08/21 15:21:15;;;;;;;6.63;6.00;;;;;;;;;;4981941;28;20046;-81
2021/08/21 15:23:42;;;;;;;4.97;3.70;;;;;;;;;;4987720;28;20074;-80
2021/08/21 15:26:11;;;;;;;4.13;3.70;;;;;;;;;;4991742;28;20061;-81
2021/08/21 15:28:38;;;;;;;5.10;3.15;;;;;;;;;;4993659;28;20035;-80
2021/08/21 15:31:09;;;;;;;5.93;3.92;;;;;;;;;;4973319;28;20476;-81
2021/08/21 15:33:37;;;;;;;3.63;3.33;;;;;;;;;;4984719;28;20047;-81
2021/08/21 15:36:05;;;;;;;4.82;3.20;;;;;;;;;;4973677;28;20047;-81
2021/08/21 15:38:32;;;;;;;3.33;3.03;;;;;;;;;;4974186;28;20042;-80
2021/08/21 15:41:00;;;;;;;5.78;3.15;;;;;;;;;;4972777;28;20047;-81
2021/08/21 15:43:28;;;;;;;5.57;3.10;;;;;;;;;;4973277;28;20047;-81
2021/08/21 15:45:56;;;;;;;4.40;2.78;;;;;;;;;;4972938;28;20531;-81
2021/08/21 15:48:25;;;;;;;4.25;3.55;;;;;;;;;;4973161;28;20053;-81
2021/08/21 15:50:53;;;;;;;4.47;3.78;;;;;;;;;;4977217;28;20076;-81
2021/08/21 15:53:20;;;;;;;4.47;3.50;;;;;;;;;;4992190;28;20069;-81
2021/08/21 15:55:48;;;;;;;3.97;3.17;;;;;;;;;;4992225;28;20053;-81
2021/08/21 15:58:17;;;;;;;5.75;2.95;;;;;;;;;;4992309;28;20042;-82
2021/08/21 16:00:45;;;;;;;4.72;3.35;;;;;;;;;;4991583;28;20050;-82
2021/08/21 16:03:15;;;;;;;4.25;3.30;;;;;;;;;;4992140;28;20467;-81
2021/08/21 16:05:42;;;;;;;3.30;3.00;;;;;;;;;;4991800;28;20040;-81
2021/08/21 16:08:10;;;;;;;5.13;3.00;;;;;;;;;;4992287;28;20050;-81
2021/08/21 16:10:39;;;;;;;3.90;3.50;;;;;;;;;;4990977;28;20110;-82
2021/08/21 16:13:06;;;;;;;3.65;3.35;;;;;;;;;;4992048;28;20125;-81
2021/08/21 16:15:34;;;;;;;9.00;3.70;;;;;;;;;;4991586;28;20399;-81
2021/08/21 16:18:03;;;;;;;3.42;3.13;;;;;;;;;;4991031;28;20129;-82
2021/08/21 16:20:30;;;;;;;6.10;3.55;;;;;;;;;;4990651;28;20077;-81
2021/08/21 16:22:58;;;;;;;7.07;3.38;;;;;;;;;;4990708;28;20133;-81
2021/08/21 16:25:25;;;;;;;4.15;3.33;;;;;;;;;;4991347;28;20504;-81
2021/08/21 16:27:55;;;;;;;3.80;3.45;;;;;;;;;;4991317;28;20073;-81
2021/08/21 16:30:22;;;;;;;3.60;3.30;;;;;;;;;;4990949;28;20583;-81
2021/08/21 16:32:50;;;;;;;3.80;3.45;;;;;;;;;;4991119;28;20192;-81
2021/08/21 16:35:18;;;;;;;3.40;3.08;;;;;;;;;;4991035;28;20117;-81
2021/08/21 16:37:49;;;;;;;5.10;3.47;;;;;;;;;;4990929;28;20403;-81
2021/08/21 16:40:16;;;;;;;5.15;3.75;;;;;;;;;;4990138;28;20234;-81
2021/08/21 16:42:43;;;;;;;4.43;3.20;;;;;;;;;;4990879;28;20481;-81
2021/08/21 16:45:13;;;;;;;6.13;3.50;;;;;;;;;;4994556;28;20042;-82
2021/08/21 16:47:40;;;;;;;3.53;3.15;;;;;;;;;;4994822;28;20083;-82
2021/08/21 16:50:08;;;;;;;4.82;3.42;;;;;;;;;;4994113;28;20137;-82
2021/08/21 16:52:40;;;;;;;6.13;3.50;;;;;;;;;;4994509;28;20054;-82
2021/08/21 16:55:10;;;;;;;5.35;3.72;;;;;;;;;;4994825;28;20042;-82
2021/08/21 16:57:37;;;;;;;4.97;4.47;;;;;;;;;;4994905;28;20047;-82
2021/08/21 17:00:05;;;;;;;5.13;3.88;;;;;;;;;;4994018;28;20492;-82
2021/08/21 17:02:32;;;;;;;4.88;3.80;;;;;;;;;;4994802;28;20050;-82
2021/08/21 17:05:00;;;;;;;5.32;3.60;;;;;;;;;;4994971;28;20042;-82
2021/08/21 17:07:27;;;;;;;4.22;3.83;;;;;;;;;;4994702;28;20062;-81
2021/08/21 17:09:56;;;;;;;5.53;3.78;;;;;;;;;;4994284;28;20042;-81
2021/08/21 17:12:24;;;;;;;4.55;3.97;;;;;;;;;;4979029;28;20489;-82
2021/08/21 17:14:51;;;;;;;3.88;3.55;;;;;;;;;;4974771;28;20062;-82
2021/08/21 17:17:18;;;;;;;5.90;3.97;;;;;;;;;;4974801;28;20047;-81
2021/08/21 17:19:49;;;;;;;5.57;4.00;;;;;;;;;;4974613;28;20070;-81
2021/08/21 17:22:17;;;;;;;5.28;4.32;;;;;;;;;;4974967;28;20556;-81
2021/08/21 17:24:44;;;;;;;6.97;4.20;;;;;;;;;;4975170;28;20061;-81
2021/08/21 17:27:14;;;;;;;5.75;3.72;;;;;;;;;;4975369;28;20073;-81
2021/08/21 17:29:41;;;;;;;6.10;3.72;;;;;;;;;;4974607;28;20038;-81
2021/08/21 17:32:09;;;;;;;5.57;4.53;;;;;;;;;;4974580;28;20046;-81
2021/08/21 17:34:37;;;;;;;5.93;4.78;;;;;;;;;;4974578;28;20043;-81
2021/08/21 17:37:04;;;;;;;4.60;4.20;;;;;;;;;;4974964;28;20094;-81
2021/08/21 17:39:32;;;;;;;4.45;3.65;;;;;;;;;;4974731;28;20043;-81
2021/08/21 17:41:59;;;;;;;8.80;3.88;;;;;;;;;;4974008;28;20042;-80
2021/08/21 17:44:28;;;;;;;4.68;4.15;;;;;;;;;;4975138;28;20121;-81
2021/08/21 17:46:55;;;;;;;5.40;4.05;;;;;;;;;;4974239;28;20454;-81
2021/08/21 17:49:22;;;;;;;4.28;3.95;;;;;;;;;;4974821;28;20506;-80
2021/08/21 17:51:50;;;;;;;9.02;5.55;;;;;;;;;;4986508;28;20053;-81
2021/08/21 17:54:20;;;;;;;8.75;4.95;;;;;;;;;;4993956;28;20395;-81
2021/08/21 17:56:47;;;;;;;7.13;4.40;;;;;;;;;;4993705;28;20045;-81
2021/08/21 17:59:14;;;;;;;5.60;4.05;;;;;;;;;;4993701;28;20053;-81
2021/08/21 18:01:43;;;;;;;5.47;3.92;;;;;;;;;;4993460;28;20098;-80
2021/08/21 18:04:11;;;;;;;5.35;4.00;;;;;;;;;;4994010;28;20042;-82
2021/08/21 18:06:40;;;;;;;6.00;4.68;;;;;;;;;;4993470;28;20051;-81
2021/08/21 18:09:08;;;;;;;4.50;4.10;;;;;;;;;;4994229;28;20034;-81
2021/08/21 18:11:36;;;;;;;5.38;4.25;;;;;;;;;;5000512;28;20110;-81
2021/08/21 18:14:03;;;;;;;8.00;5.20;;;;;;;;;;5006513;28;20072;-80
2021/08/21 18:16:31;;;;;;;6.50;4.95;;;;;;;;;;5007244;28;20066;-80
2021/08/21 18:18:59;;;;;;;4.35;3.95;;;;;;;;;;5009050;28;20069;-80
2021/08/21 18:21:27;;;;;;;6.90;5.18;;;;;;;;;;4995799;28;20076;-81
2021/08/21 18:23:54;;;;;;;10.90;8.00;;;;;;;;;;5004384;28;20046;-81
2021/08/21 18:26:21;;;;;;;6.20;5.38;;;;;;;;;;4993548;28;20384;-82
2021/08/21 18:28:49;;;;;;;5.20;4.70;;;;;;;;;;4993042;28;20524;-82
2021/08/21 18:31:16;;;;;;;5.47;4.93;;;;;;;;;;4992774;28;20050;-81
2021/08/21 18:33:44;;;;;;;15.57;5.05;;;;;;;;;;4993100;28;20038;-82
2021/08/21 18:36:13;;;;;;;6.57;5.65;;;;;;;;;;4993173;28;20043;-81
2021/08/21 18:38:42;;;;;;;7.53;5.97;;;;;;;;;;4992959;28;20124;-82
2021/08/21 18:41:11;;;;;;;7.97;5.80;;;;;;;;;;4992016;28;20492;-81
2021/08/21 18:43:39;;;;;;;8.30;6.63;;;;;;;;;;4992592;28;20070;-81
2021/08/21 18:46:08;;;;;;;7.97;6.53;;;;;;;;;;4992799;28;20042;-80
2021/08/21 18:48:35;;;;;;;9.75;5.75;;;;;;;;;;4992760;28;20050;-81
2021/08/21 18:51:02;;;;;;;10.23;5.70;;;;;;;;;;4991921;28;20055;-82
2021/08/21 18:53:32;;;;;;;5.95;5.45;;;;;;;;;;4992727;28;20294;-82
2021/08/21 18:55:59;;;;;;;7.72;5.78;;;;;;;;;;4992939;28;20042;-81
2021/08/21 18:58:27;;;;;;;8.27;5.72;;;;;;;;;;4992887;28;20126;-81
2021/08/21 19:00:54;;;;;;;6.40;5.80;;;;;;;;;;4974410;28;20093;-81
2021/08/21 19:03:21;;;;;;;8.02;5.80;;;;;;;;;;4992284;28;20463;-81
2021/08/21 19:05:48;;;;;;;9.55;6.03;;;;;;;;;;4991930;28;20042;-81
2021/08/21 19:08:19;;;;;;;8.02;5.70;;;;;;;;;;4992228;28;20042;-81
2021/08/21 19:10:48;;;;;;;6.85;6.18;;;;;;;;;;4991721;28;20046;-81
2021/08/21 19:13:15;;;;;;;7.47;6.05;;;;;;;;;;4992300;28;20061;-81
2021/08/21 19:15:43;;;;;;;8.73;5.75;;;;;;;;;;4992089;28;20133;-81
2021/08/21 19:18:10;;;;;;;7.68;6.07;;;;;;;;;;4992243;28;20049;-81
2021/08/21 19:20:37;;;;;;;8.82;5.72;;;;;;;;;;4991731;28;20049;-81
2021/08/21 19:23:05;;;;;;;7.05;6.07;;;;;;;;;;4992219;28;20054;-81
2021/08/21 19:25:33;;;;;;;12.60;6.47;;;;;;;;;;4991998;28;20125;-81
2021/08/21 19:28:02;;;;;;;7.13;5.70;;;;;;;;;;4992139;28;20058;-81
2021/08/21 19:30:29;;;;;;;6.25;5.28;;;;;;;;;;4991610;28;20031;-80
2021/08/21 19:32:57;;;;;;;8.60;5.50;;;;;;;;;;4991933;28;20069;-81
2021/08/21 19:35:24;;;;;;;5.72;5.20;;;;;;;;;;4991909;28;20046;-81
2021/08/21 19:37:51;;;;;;;8.95;5.05;;;;;;;;;;4992157;28;20045;-81
2021/08/21 19:40:19;;;;;;;6.05;5.05;;;;;;;;;;4991479;28;20272;-81
2021/08/21 19:42:47;;;;;;;7.53;5.93;;;;;;;;;;4992402;28;20480;-81
2021/08/21 19:45:18;;;;;;;8.35;5.88;;;;;;;;;;4992048;28;20050;-81